createdAt,value
2017-09-13T00:07:10.399Z,13
2017-09-13T00:17:20.635Z,12.9
2017-09-13T00:27:34.506Z,12.9
2017-09-13T00:37:48.573Z,13.1
2017-09-13T00:48:03.557Z,13.3
2017-09-13T00:58:17.729Z,13.3
2017-09-13T01:08:32.286Z,13.3
2017-09-13T01:18:45.516Z,13.4
2017-09-13T01:28:59.367Z,13.3
2017-09-13T01:39:14.461Z,13.5
2017-09-13T01:49:28.651Z,13.6
2017-09-13T01:59:42.162Z,13.4
2017-09-13T02:09:56.646Z,12.9
2017-09-13T02:20:09.890Z,12.6
2017-09-13T02:30:20.112Z,12.6
2017-09-13T02:40:34.347Z,12.5
2017-09-13T02:50:48.818Z,12.3
2017-09-13T03:01:03.833Z,12.3
2017-09-13T03:11:17.984Z,12.1
2017-09-13T03:21:32.106Z,12.2
2017-09-13T03:31:47.256Z,12.1
2017-09-13T03:42:01.205Z,12.1
2017-09-13T03:52:15.199Z,12.1
2017-09-13T04:02:30.041Z,12.1
2017-09-13T04:12:43.885Z,12.1
2017-09-13T04:22:58.920Z,12.1
2017-09-13T04:33:13.236Z,12.1
2017-09-13T04:43:23.473Z,12.1
2017-09-13T04:53:36.595Z,12.3
2017-09-13T05:03:49.812Z,12.4
2017-09-13T05:14:04.278Z,12.5
2017-09-13T05:24:18.833Z,12.5
2017-09-13T05:34:32.998Z,12.6
2017-09-13T05:44:46.480Z,12.7
2017-09-13T05:55:01.332Z,12.8
2017-09-13T06:05:14.605Z,12.9
2017-09-13T06:15:28.413Z,13
2017-09-13T06:25:42.041Z,13.2
2017-09-13T06:46:10.400Z,13.3
2017-09-13T06:56:20.623Z,13.8
2017-09-13T07:06:35.026Z,14.4
2017-09-13T07:16:49.716Z,15.1
2017-09-13T07:27:03.651Z,15.6
2017-09-13T07:37:16.885Z,15.5
2017-09-13T07:47:29.733Z,15.8
2017-09-13T07:57:43.562Z,15.7
2017-09-13T08:07:57.124Z,15.8
2017-09-13T08:18:11.993Z,16.3
2017-09-13T08:28:25.209Z,16.7
2017-09-13T08:38:39.383Z,17.5
2017-09-13T08:48:53.521Z,17.5
2017-09-13T08:59:06.794Z,17.2
2017-09-13T09:09:17.104Z,17.5
2017-09-13T09:19:31.881Z,16.4
2017-09-13T09:29:46.139Z,15
2017-09-13T09:40:00.140Z,14.9
2017-09-13T09:50:15.292Z,15.9
2017-09-13T10:00:29.081Z,15
2017-09-13T10:10:42.378Z,16.7
2017-09-13T10:20:56.138Z,18.6
2017-09-13T10:31:11.121Z,18.9
2017-09-13T10:41:25.759Z,18.6
2017-09-13T10:51:39.438Z,19.1
2017-09-13T11:01:54.484Z,18.4
2017-09-13T11:12:07.762Z,18.9
2017-09-13T11:22:18.139Z,18.9
2017-09-13T11:32:32.202Z,17.8
2017-09-13T11:42:45.812Z,18.7
2017-09-13T11:52:59.694Z,18.8
2017-09-13T12:03:14.768Z,19
2017-09-13T12:13:28.904Z,18.7
2017-09-13T12:23:43.552Z,18.6
2017-09-13T12:33:58.250Z,19.4
2017-09-13T12:44:12.970Z,19.6
2017-09-13T12:54:27.958Z,18.9
2017-09-13T13:04:42.817Z,19.7
2017-09-13T13:14:57.065Z,19.2
2017-09-13T13:25:11.387Z,19
2017-09-13T13:35:25.885Z,18.8
2017-09-13T13:45:36.237Z,17.8
2017-09-13T13:55:50.385Z,18.1
2017-09-13T14:06:04.560Z,18.9
2017-09-13T14:16:19.509Z,18.6
2017-09-13T14:26:32.821Z,18.3
2017-09-13T14:36:46.304Z,19
2017-09-13T14:47:01.309Z,17.9
2017-09-13T14:57:16.421Z,18.6
2017-09-13T15:07:30.970Z,18.3
2017-09-13T15:17:44.785Z,18.7
2017-09-13T15:27:58.842Z,17.8
2017-09-13T15:38:13.733Z,17.5
2017-09-13T15:48:28.092Z,17.3
2017-09-13T15:58:38.368Z,16.9
2017-09-13T16:08:52.098Z,16.7
2017-09-13T16:19:05.290Z,16.4
2017-09-13T16:29:19.941Z,16.3
2017-09-13T16:39:33.730Z,16
2017-09-13T16:49:47.041Z,15.8
2017-09-13T17:00:01.143Z,15.6
2017-09-13T17:10:14.717Z,15.8
2017-09-13T17:20:27.973Z,15.6
2017-09-13T17:30:41.961Z,15.5
2017-09-13T17:40:55.889Z,15
2017-09-13T17:51:10.186Z,14.6
2017-09-13T18:01:24.139Z,13.7
2017-09-13T18:11:34.379Z,12.7
2017-09-13T18:21:47.510Z,12.6
2017-09-13T18:32:02.133Z,12.3
2017-09-13T18:42:15.932Z,12
2017-09-13T18:52:30.268Z,11.9
2017-09-13T19:02:44.989Z,11.6
2017-09-13T19:12:59.457Z,11.5
2017-09-13T19:23:13.720Z,11.4
2017-09-13T19:33:27.664Z,11.7
2017-09-13T19:43:42.076Z,12
2017-09-13T19:53:56.208Z,11.9
2017-09-13T20:04:10.335Z,11.9
2017-09-13T20:14:23.507Z,11.9
2017-09-13T20:24:33.755Z,12.1
2017-09-13T20:34:48.587Z,12.3
2017-09-13T20:45:01.733Z,12.3
2017-09-13T20:55:15.343Z,12.1
2017-09-13T21:05:30.169Z,12.1
2017-09-13T21:15:44.686Z,12.1
2017-09-13T21:25:58.920Z,12.2
2017-09-13T21:36:13.867Z,12.1
2017-09-13T21:46:28.060Z,12.1
2017-09-13T21:56:41.751Z,12.4
2017-09-13T22:06:55.672Z,12.5
2017-09-13T22:17:09.107Z,12.6
2017-09-13T22:27:23.137Z,12.5
2017-09-13T22:37:33.374Z,12.5
2017-09-13T22:47:48.253Z,12.4
2017-09-13T22:58:02.855Z,12.3
2017-09-13T23:08:17.885Z,12.1
2017-09-13T23:18:31.943Z,11.9
2017-09-13T23:28:46.058Z,11.6
2017-09-13T23:38:59.211Z,11.5
2017-09-13T23:49:13.702Z,11.3
2017-09-13T23:59:28.357Z,11.5
